createdAt,value
2018-05-06T00:01:51.950Z,15.16
2018-05-06T00:04:20.955Z,15.19
2018-05-06T00:06:49.315Z,15.00
2018-05-06T00:09:18.039Z,15.12
2018-05-06T00:11:46.964Z,14.90
2018-05-06T00:14:15.238Z,14.73
2018-05-06T00:16:45.054Z,14.62
2018-05-06T00:19:13.373Z,14.60
2018-05-06T00:21:41.658Z,14.69
2018-05-06T00:24:10.024Z,14.77
2018-05-06T00:26:38.885Z,14.78
2018-05-06T00:29:07.333Z,14.75
2018-05-06T00:31:37.115Z,14.71
2018-05-06T00:34:06.002Z,14.89
2018-05-06T00:36:35.188Z,14.75
2018-05-06T00:39:03.645Z,14.74
2018-05-06T00:41:31.974Z,14.69
2018-05-06T00:44:00.933Z,14.49
2018-05-06T00:46:29.323Z,14.43
2018-05-06T00:48:57.600Z,14.26
2018-05-06T00:51:26.445Z,14.24
2018-05-06T00:53:54.787Z,14.21
2018-05-06T00:56:23.098Z,14.19
2018-05-06T00:58:51.430Z,14.07
2018-05-06T01:01:19.823Z,13.94
2018-05-06T01:03:48.434Z,13.79
2018-05-06T01:06:16.726Z,13.83
2018-05-06T01:08:45.235Z,13.83
2018-05-06T01:11:13.578Z,13.94
2018-05-06T01:13:42.635Z,13.90
2018-05-06T01:16:11.176Z,13.84
2018-05-06T01:18:39.459Z,13.79
2018-05-06T01:21:07.751Z,13.75
2018-05-06T01:23:36.062Z,13.80
2018-05-06T01:26:04.416Z,13.72
2018-05-06T01:28:32.726Z,13.82
2018-05-06T01:31:01.198Z,13.87
2018-05-06T01:33:29.494Z,14.08
2018-05-06T01:35:57.851Z,14.29
2018-05-06T01:38:26.307Z,14.26
2018-05-06T01:40:55.361Z,14.13
2018-05-06T01:43:23.650Z,14.21
2018-05-06T01:45:52.227Z,14.23
2018-05-06T01:48:21.669Z,14.22
2018-05-06T01:50:50.006Z,14.05
2018-05-06T01:53:18.363Z,13.92
2018-05-06T01:55:46.933Z,13.80
2018-05-06T01:58:15.273Z,13.58
2018-05-06T02:00:43.634Z,13.47
2018-05-06T02:03:12.331Z,13.25
2018-05-06T02:05:41.450Z,13.19
2018-05-06T02:08:09.736Z,13.19
2018-05-06T02:10:38.069Z,13.22
2018-05-06T02:13:07.145Z,13.46
2018-05-06T02:15:35.442Z,13.47
2018-05-06T02:18:03.759Z,13.37
2018-05-06T02:20:32.059Z,13.34
2018-05-06T02:23:00.352Z,13.33
2018-05-06T02:25:29.446Z,13.27
2018-05-06T02:27:57.749Z,13.16
2018-05-06T02:30:29.480Z,13.08
2018-05-06T02:32:59.250Z,13.26
2018-05-06T02:35:27.849Z,13.16
2018-05-06T02:37:57.296Z,13.32
2018-05-06T02:40:25.730Z,13.30
2018-05-06T02:42:54.397Z,13.32
2018-05-06T02:45:23.203Z,13.52
2018-05-06T02:47:51.629Z,13.40
2018-05-06T02:50:19.903Z,13.19
2018-05-06T02:52:48.242Z,13.14
2018-05-06T02:55:17.063Z,13.32
2018-05-06T02:57:45.452Z,13.16
2018-05-06T03:00:14.074Z,12.88
2018-05-06T03:02:42.355Z,12.87
2018-05-06T03:05:10.683Z,12.69
2018-05-06T03:07:38.999Z,12.77
2018-05-06T03:10:07.319Z,12.78
2018-05-06T03:12:35.603Z,13.03
2018-05-06T03:15:03.914Z,12.86
2018-05-06T03:17:32.199Z,12.80
2018-05-06T03:20:01.023Z,13.02
2018-05-06T03:22:29.311Z,13.08
2018-05-06T03:24:57.629Z,13.08
2018-05-06T03:27:25.918Z,13.22
2018-05-06T03:29:54.760Z,13.18
2018-05-06T03:32:23.075Z,13.20
2018-05-06T03:34:51.384Z,13.10
2018-05-06T03:37:20.021Z,13.12
2018-05-06T03:39:48.303Z,13.09
2018-05-06T03:42:16.604Z,13.05
2018-05-06T03:44:44.911Z,13.02
2018-05-06T03:47:13.187Z,12.86
2018-05-06T03:49:41.525Z,12.66
2018-05-06T03:52:09.858Z,12.47
2018-05-06T03:54:38.748Z,12.65
2018-05-06T03:57:24.638Z,12.59
2018-05-06T04:00:11.036Z,12.63
2018-05-06T04:02:39.959Z,12.73
2018-05-06T04:05:08.242Z,12.67
2018-05-06T04:07:36.785Z,12.78
2018-05-06T04:10:05.070Z,12.78
2018-05-06T04:12:33.350Z,12.78
2018-05-06T04:15:02.143Z,12.69
2018-05-06T04:17:30.430Z,12.59
2018-05-06T04:19:59.103Z,12.54
2018-05-06T04:22:27.430Z,12.55
2018-05-06T04:24:56.390Z,12.53
2018-05-06T04:27:24.678Z,12.44
2018-05-06T04:29:53.207Z,12.42
2018-05-06T04:32:21.502Z,12.51
2018-05-06T04:34:49.807Z,12.68
2018-05-06T04:37:19.504Z,12.91
2018-05-06T04:39:47.835Z,13.09
2018-05-06T04:42:16.546Z,13.16
2018-05-06T04:44:45.241Z,13.47
2018-05-06T04:47:13.566Z,13.93
2018-05-06T04:49:41.852Z,14.42
2018-05-06T04:52:10.135Z,14.93
2018-05-06T04:54:38.454Z,15.29
2018-05-06T04:57:06.738Z,15.70
2018-05-06T04:59:34.794Z,15.74
2018-05-06T05:02:03.150Z,16.39
2018-05-06T05:04:31.738Z,16.85
2018-05-06T05:07:00.560Z,17.42
2018-05-06T05:09:28.892Z,17.65
2018-05-06T05:11:57.799Z,18.02
2018-05-06T05:14:26.507Z,18.12
2018-05-06T05:16:54.839Z,18.84
2018-05-06T05:19:23.123Z,19.18
2018-05-06T05:21:51.815Z,19.80
2018-05-06T05:24:20.188Z,19.33
2018-05-06T05:26:49.131Z,19.73
2018-05-06T05:29:17.412Z,19.48
2018-05-06T05:31:45.737Z,19.86
2018-05-06T05:34:14.015Z,20.14
2018-05-06T05:36:42.294Z,20.19
2018-05-06T05:39:10.606Z,19.98
2018-05-06T05:41:39.503Z,20.31
2018-05-06T05:44:07.782Z,20.70
2018-05-06T05:46:36.190Z,20.43
2018-05-06T05:49:04.475Z,21.03
2018-05-06T05:51:33.406Z,21.06
2018-05-06T05:54:01.746Z,20.97
2018-05-06T05:56:30.034Z,20.58
2018-05-06T05:58:58.315Z,20.85
2018-05-06T06:01:26.426Z,20.87
2018-05-06T06:03:55.290Z,21.52
2018-05-06T06:06:23.568Z,21.84
2018-05-06T06:08:51.900Z,21.77
2018-05-06T06:11:20.723Z,21.54
2018-05-06T06:13:49.003Z,21.81
2018-05-06T06:16:17.335Z,21.63
2018-05-06T06:18:45.623Z,21.67
2018-05-06T06:21:14.673Z,21.43
2018-05-06T06:23:43.000Z,21.80
2018-05-06T06:26:12.046Z,21.74
2018-05-06T06:28:40.331Z,21.49
2018-05-06T06:31:08.667Z,22.45
2018-05-06T06:33:37.150Z,22.60
2018-05-06T06:36:05.519Z,23.05
2018-05-06T06:38:33.835Z,23.33
2018-05-06T06:41:02.118Z,24.32
2018-05-06T06:43:30.395Z,24.55
2018-05-06T06:45:58.723Z,23.56
2018-05-06T06:48:27.003Z,23.79
2018-05-06T06:50:55.094Z,24.40
2018-05-06T06:53:23.418Z,25.18
2018-05-06T06:55:52.072Z,25.32
2018-05-06T06:58:20.281Z,25.23
2018-05-06T07:00:48.635Z,25.73
2018-05-06T07:03:17.367Z,25.28
2018-05-06T07:05:46.428Z,26.23
2018-05-06T07:08:14.947Z,26.08
2018-05-06T07:10:43.868Z,25.63
2018-05-06T07:13:12.190Z,25.00
2018-05-06T07:15:40.475Z,25.03
2018-05-06T07:18:09.210Z,25.93
2018-05-06T07:20:37.540Z,25.09
2018-05-06T07:23:05.822Z,23.59
2018-05-06T07:25:35.088Z,24.76
2018-05-06T07:28:03.934Z,25.21
2018-05-06T07:30:32.464Z,25.70
2018-05-06T07:33:00.867Z,25.88
2018-05-06T07:35:29.155Z,26.09
2018-05-06T07:37:58.210Z,26.49
2018-05-06T07:40:26.520Z,26.50
2018-05-06T07:42:54.946Z,26.44
2018-05-06T07:45:23.234Z,25.53
2018-05-06T07:47:51.599Z,27.17
2018-05-06T07:50:22.672Z,27.54
2018-05-06T07:52:50.980Z,28.92
2018-05-06T07:55:19.263Z,29.15
2018-05-06T07:57:47.611Z,28.30
2018-05-06T08:00:15.887Z,27.67
2018-05-06T08:02:44.463Z,27.84
2018-05-06T08:05:12.908Z,27.15
2018-05-06T08:07:41.196Z,28.06
2018-05-06T08:10:09.471Z,27.95
2018-05-06T08:12:37.779Z,28.72
2018-05-06T08:15:06.614Z,28.14
2018-05-06T08:17:35.418Z,28.86
2018-05-06T08:20:03.770Z,29.16
2018-05-06T08:22:32.051Z,28.72
2018-05-06T08:25:00.336Z,27.90
2018-05-06T08:27:28.668Z,28.53
2018-05-06T08:29:56.955Z,29.48
2018-05-06T08:32:25.243Z,30.39
2018-05-06T08:34:53.580Z,32.13
2018-05-06T08:37:21.871Z,29.34
2018-05-06T08:39:50.150Z,29.08
2018-05-06T08:42:18.863Z,30.49
2018-05-06T08:44:47.146Z,31.08
2018-05-06T08:47:15.423Z,31.36
2018-05-06T08:49:43.940Z,32.27
2018-05-06T08:52:12.266Z,31.49
2018-05-06T08:54:40.555Z,32.25
2018-05-06T08:57:08.870Z,33.04
2018-05-06T08:59:37.191Z,32.21
2018-05-06T09:02:05.443Z,31.94
2018-05-06T09:04:33.983Z,32.73
2018-05-06T09:07:02.367Z,33.07
2018-05-06T09:09:30.651Z,32.70
2018-05-06T09:11:59.110Z,33.77
2018-05-06T09:14:27.872Z,32.39
2018-05-06T09:16:56.240Z,33.90
2018-05-06T09:19:24.548Z,33.86
2018-05-06T09:21:52.852Z,32.23
2018-05-06T09:24:21.363Z,30.41
2018-05-06T09:26:50.032Z,30.29
2018-05-06T09:29:18.335Z,31.80
2018-05-06T09:31:46.669Z,33.15
2018-05-06T09:34:15.027Z,31.18
2018-05-06T09:36:43.595Z,32.03
2018-05-06T09:39:11.880Z,32.88
2018-05-06T09:41:40.208Z,33.21
2018-05-06T09:44:08.504Z,32.90
2018-05-06T09:46:36.786Z,35.28
2018-05-06T09:49:05.351Z,36.70
2018-05-06T09:51:33.631Z,31.23
2018-05-06T09:54:01.910Z,34.93
2018-05-06T09:56:30.258Z,33.07
2018-05-06T09:58:58.942Z,34.44
2018-05-06T10:01:27.390Z,33.22
2018-05-06T10:03:56.279Z,33.90
2018-05-06T10:06:24.578Z,33.92
2018-05-06T10:08:53.367Z,34.76
2018-05-06T10:11:21.651Z,33.21
2018-05-06T10:13:49.943Z,33.46
2018-05-06T10:16:18.251Z,35.54
2018-05-06T10:18:46.975Z,37.09
2018-05-06T10:21:15.297Z,36.42
2018-05-06T10:23:43.579Z,39.40
2018-05-06T10:26:11.885Z,40.52
2018-05-06T10:28:40.198Z,38.38
2018-05-06T10:31:10.257Z,37.24
2018-05-06T10:33:38.553Z,37.94
2018-05-06T10:36:07.407Z,38.61
2018-05-06T10:38:35.692Z,39.06
2018-05-06T10:41:03.979Z,39.09
2018-05-06T10:43:32.278Z,38.74
2018-05-06T10:46:00.847Z,36.17
2018-05-06T10:48:29.659Z,37.76
2018-05-06T10:50:58.002Z,35.83
2018-05-06T10:53:26.767Z,35.21
2018-05-06T10:55:55.042Z,38.04
2018-05-06T10:58:23.357Z,35.73
2018-05-06T11:00:51.641Z,37.86
2018-05-06T11:03:19.926Z,38.66
2018-05-06T11:05:48.239Z,39.01
2018-05-06T11:08:16.578Z,40.98
2018-05-06T11:10:45.284Z,41.31
2018-05-06T11:13:13.673Z,41.72
2018-05-06T11:15:41.952Z,38.36
2018-05-06T11:18:10.297Z,34.91
2018-05-06T11:20:38.967Z,37.10
2018-05-06T11:23:08.568Z,36.13
2018-05-06T11:25:36.887Z,37.84
2018-05-06T11:28:05.167Z,35.69
2018-05-06T11:30:33.448Z,35.90
2018-05-06T11:33:01.768Z,36.18
2018-05-06T11:35:30.059Z,36.00
2018-05-06T11:37:58.334Z,36.92
2018-05-06T11:40:27.676Z,34.53
2018-05-06T11:42:55.958Z,34.55
2018-05-06T11:45:25.135Z,33.87
2018-05-06T11:47:53.478Z,31.22
2018-05-06T11:50:22.263Z,32.79
2018-05-06T11:52:50.552Z,34.10
2018-05-06T11:55:18.891Z,32.85
2018-05-06T11:57:47.935Z,33.56
2018-05-06T12:00:17.492Z,34.63
2018-05-06T12:02:46.713Z,35.90
2018-05-06T12:05:15.002Z,35.71
2018-05-06T12:07:43.374Z,34.88
2018-05-06T12:10:11.703Z,35.15
2018-05-06T12:12:39.988Z,35.50
2018-05-06T12:15:08.274Z,37.19
2018-05-06T12:17:36.608Z,36.22
2018-05-06T12:20:05.515Z,36.17
2018-05-06T12:22:35.427Z,35.99
2018-05-06T12:25:04.425Z,37.08
2018-05-06T12:27:32.714Z,35.80
2018-05-06T12:30:01.505Z,33.53
2018-05-06T12:32:29.841Z,34.55
2018-05-06T12:34:58.339Z,34.97
2018-05-06T12:37:26.627Z,35.42
2018-05-06T12:39:54.943Z,35.61
2018-05-06T12:42:23.237Z,36.38
2018-05-06T12:44:51.535Z,37.02
2018-05-06T12:47:19.844Z,36.05
2018-05-06T12:49:48.127Z,35.48
2018-05-06T12:52:16.437Z,35.90
2018-05-06T12:54:46.007Z,36.53
2018-05-06T12:57:14.290Z,38.91
2018-05-06T12:59:42.603Z,36.70
2018-05-06T13:02:10.882Z,34.28
2018-05-06T13:04:40.175Z,33.69
2018-05-06T13:07:08.495Z,34.40
2018-05-06T13:09:36.778Z,35.85
2018-05-06T13:12:05.082Z,36.95
2018-05-06T13:14:33.355Z,37.68
2018-05-06T13:17:01.636Z,35.65
2018-05-06T13:19:29.962Z,34.54
2018-05-06T13:21:58.919Z,36.26
2018-05-06T13:24:27.202Z,37.15
2018-05-06T13:26:55.574Z,35.94
2018-05-06T13:29:23.858Z,37.10
2018-05-06T13:31:52.138Z,38.25
2018-05-06T13:34:20.470Z,37.86
2018-05-06T13:36:49.414Z,38.43
2018-05-06T13:39:17.695Z,37.86
2018-05-06T13:41:47.355Z,35.50
2018-05-06T13:44:15.663Z,36.03
2018-05-06T13:46:45.162Z,37.96
2018-05-06T13:49:13.895Z,37.50
2018-05-06T13:51:42.174Z,36.69
2018-05-06T13:54:10.455Z,38.45
2018-05-06T13:56:38.810Z,36.71
2018-05-06T13:59:07.135Z,36.48
2018-05-06T14:01:35.415Z,36.91
2018-05-06T14:04:03.757Z,34.57
2018-05-06T14:06:32.188Z,34.32
2018-05-06T14:09:00.479Z,33.46
2018-05-06T14:11:28.795Z,32.72
2018-05-06T14:13:57.371Z,33.20
2018-05-06T14:16:25.651Z,34.91
2018-05-06T14:18:53.987Z,33.07
2018-05-06T14:21:22.281Z,33.15
2018-05-06T14:23:50.625Z,33.65
2018-05-06T14:26:18.975Z,33.87
2018-05-06T14:28:47.035Z,34.46
2018-05-06T14:31:15.323Z,35.53
2018-05-06T14:33:43.654Z,34.52
2018-05-06T14:36:12.355Z,34.26
2018-05-06T14:38:41.004Z,33.77
2018-05-06T14:41:09.326Z,33.32
2018-05-06T14:43:37.807Z,33.34
2018-05-06T14:46:06.099Z,31.37
2018-05-06T14:48:34.704Z,33.59
2018-05-06T14:51:03.387Z,34.81
2018-05-06T14:53:31.680Z,33.37
2018-05-06T14:56:00.068Z,33.04
2018-05-06T14:58:28.339Z,32.67
2018-05-06T15:00:56.632Z,33.23
2018-05-06T15:03:24.960Z,32.73
2018-05-06T15:05:53.251Z,33.65
2018-05-06T15:08:21.537Z,33.71
2018-05-06T15:10:50.082Z,34.61
2018-05-06T15:13:18.907Z,33.81
2018-05-06T15:15:47.273Z,32.93
2018-05-06T15:18:15.911Z,33.39
2018-05-06T15:20:44.964Z,32.51
2018-05-06T15:23:13.723Z,31.60
2018-05-06T15:25:42.158Z,32.22
2018-05-06T15:28:10.854Z,33.11
2018-05-06T15:30:39.162Z,32.73
2018-05-06T15:33:07.445Z,31.46
2018-05-06T15:35:35.729Z,32.43
2018-05-06T15:38:04.175Z,31.43
2018-05-06T15:40:32.454Z,32.36
2018-05-06T15:43:00.745Z,33.08
2018-05-06T15:45:29.059Z,33.48
2018-05-06T15:47:57.342Z,33.81
2018-05-06T15:50:26.457Z,33.40
2018-05-06T15:52:55.423Z,31.87
2018-05-06T15:55:23.715Z,31.51
2018-05-06T15:57:52.005Z,31.18
2018-05-06T16:00:20.579Z,30.35
2018-05-06T16:03:06.602Z,30.47
2018-05-06T16:05:34.919Z,29.53
2018-05-06T16:08:03.215Z,30.18
2018-05-06T16:10:31.549Z,30.48
2018-05-06T16:13:00.490Z,30.04
2018-05-06T16:15:28.783Z,29.36
2018-05-06T16:17:57.127Z,29.80
2018-05-06T16:20:25.583Z,29.75
2018-05-06T16:22:53.873Z,29.33
2018-05-06T16:25:22.187Z,29.11
2018-05-06T16:27:50.722Z,29.00
2018-05-06T16:30:19.019Z,28.49
2018-05-06T16:32:47.327Z,28.11
2018-05-06T16:35:15.614Z,28.23
2018-05-06T16:37:43.922Z,27.83
2018-05-06T16:40:12.271Z,28.03
2018-05-06T16:42:40.918Z,28.27
2018-05-06T16:45:09.950Z,28.10
2018-05-06T16:47:38.243Z,28.01
2018-05-06T16:50:06.551Z,27.74
2018-05-06T16:52:34.832Z,27.83
2018-05-06T16:55:03.411Z,27.21
2018-05-06T16:57:31.731Z,26.66
2018-05-06T17:00:00.015Z,26.78
2018-05-06T17:02:28.361Z,26.81
2018-05-06T17:04:56.639Z,26.61
2018-05-06T17:07:24.919Z,26.57
2018-05-06T17:09:53.227Z,26.44
2018-05-06T17:12:21.502Z,26.13
2018-05-06T17:14:49.786Z,25.57
2018-05-06T17:17:18.149Z,25.51
2018-05-06T17:19:46.463Z,25.55
2018-05-06T17:22:14.747Z,25.36
2018-05-06T17:24:43.075Z,25.25
2018-05-06T17:27:11.356Z,25.04
2018-05-06T17:29:39.742Z,24.48
2018-05-06T17:32:08.046Z,24.27
2018-05-06T17:34:37.070Z,24.62
2018-05-06T17:37:05.363Z,24.53
2018-05-06T17:39:33.693Z,24.50
2018-05-06T17:42:01.971Z,24.37
2018-05-06T17:44:30.251Z,24.22
2018-05-06T17:46:58.627Z,24.01
2018-05-06T17:49:28.187Z,23.63
2018-05-06T17:51:57.290Z,23.95
2018-05-06T17:54:25.626Z,23.44
2018-05-06T17:56:53.907Z,23.22
2018-05-06T17:59:22.182Z,22.93
2018-05-06T18:01:51.275Z,22.68
2018-05-06T18:04:19.561Z,22.57
2018-05-06T18:06:47.839Z,22.18
2018-05-06T18:09:16.171Z,21.91
2018-05-06T18:11:45.139Z,21.79
2018-05-06T18:14:13.426Z,21.59
2018-05-06T18:16:43.214Z,21.31
2018-05-06T18:19:11.500Z,21.20
2018-05-06T18:21:40.161Z,20.97
2018-05-06T18:24:08.486Z,20.86
2018-05-06T18:26:36.774Z,20.72
2018-05-06T18:29:05.834Z,20.64
2018-05-06T18:31:34.199Z,20.46
2018-05-06T18:34:02.479Z,20.36
2018-05-06T18:36:30.757Z,20.22
2018-05-06T18:38:59.847Z,20.15
2018-05-06T18:41:28.130Z,20.00
2018-05-06T18:43:56.604Z,19.82
2018-05-06T18:46:24.923Z,19.80
2018-05-06T18:48:53.207Z,19.71
2018-05-06T18:51:21.483Z,19.47
2018-05-06T18:53:49.817Z,19.43
2018-05-06T18:56:18.203Z,19.38
2018-05-06T18:58:47.306Z,19.20
2018-05-06T19:01:16.245Z,19.02
2018-05-06T19:03:44.878Z,19.04
2018-05-06T19:06:13.774Z,19.05
2018-05-06T19:08:42.471Z,18.81
2018-05-06T19:11:11.163Z,18.61
2018-05-06T19:13:39.441Z,18.69
2018-05-06T19:16:07.723Z,18.65
2018-05-06T19:18:36.050Z,18.36
2018-05-06T19:21:04.331Z,18.07
2018-05-06T19:23:32.675Z,18.03
2018-05-06T19:26:00.987Z,17.91
2018-05-06T19:28:30.131Z,17.94
2018-05-06T19:30:59.558Z,17.90
2018-05-06T19:33:27.847Z,17.79
2018-05-06T19:35:56.167Z,17.63
2018-05-06T19:38:24.875Z,17.48
2018-05-06T19:40:53.159Z,17.50
2018-05-06T19:43:21.507Z,17.35
2018-05-06T19:45:49.797Z,17.41
2018-05-06T19:48:18.071Z,17.38
2018-05-06T19:50:46.851Z,17.45
2018-05-06T19:53:15.218Z,17.52
2018-05-06T19:55:43.987Z,17.50
2018-05-06T19:58:13.325Z,17.58
2018-05-06T20:00:42.431Z,17.38
2018-05-06T20:03:11.353Z,17.33
2018-05-06T20:05:39.595Z,17.33
2018-05-06T20:08:08.904Z,17.15
2018-05-06T20:10:37.986Z,17.09
2018-05-06T20:13:06.913Z,16.97
2018-05-06T20:15:35.543Z,16.85
2018-05-06T20:18:03.826Z,17.01
2018-05-06T20:20:32.482Z,17.19
2018-05-06T20:23:01.225Z,17.24
2018-05-06T20:25:29.455Z,17.19
2018-05-06T20:27:57.566Z,17.32
2018-05-06T20:30:26.203Z,17.34
2018-05-06T20:32:55.634Z,17.45
2018-05-06T20:35:24.210Z,17.78
2018-05-06T20:37:53.949Z,17.93
2018-05-06T20:40:22.266Z,18.15
2018-05-06T20:42:50.600Z,17.84
2018-05-06T20:45:18.799Z,17.72
2018-05-06T20:47:47.050Z,17.79
2018-05-06T20:50:15.871Z,17.82
2018-05-06T20:52:45.158Z,17.61
2018-05-06T20:55:13.463Z,17.89
2018-05-06T20:57:41.972Z,17.86
2018-05-06T21:00:10.768Z,17.81
2018-05-06T21:02:39.055Z,17.63
2018-05-06T21:05:07.454Z,17.80
2018-05-06T21:07:36.103Z,17.76
2018-05-06T21:10:04.855Z,17.58
2018-05-06T21:12:33.323Z,17.51
2018-05-06T21:15:01.616Z,17.35
2018-05-06T21:17:29.725Z,17.27
2018-05-06T21:19:58.032Z,17.32
2018-05-06T21:22:26.331Z,17.29
2018-05-06T21:24:56.114Z,17.09
2018-05-06T21:27:25.206Z,16.97
2018-05-06T21:29:54.206Z,16.78
2018-05-06T21:32:23.280Z,16.58
2018-05-06T21:34:51.688Z,16.29
2018-05-06T21:37:20.667Z,16.03
2018-05-06T21:39:49.638Z,15.80
2018-05-06T21:42:17.919Z,15.55
2018-05-06T21:44:46.318Z,15.26
2018-05-06T21:47:14.604Z,15.10
2018-05-06T21:49:42.889Z,14.87
2018-05-06T21:52:11.191Z,14.69
2018-05-06T21:54:39.532Z,14.51
2018-05-06T21:57:09.126Z,14.51
2018-05-06T21:59:37.427Z,14.52
2018-05-06T22:02:05.755Z,14.39
2018-05-06T22:04:34.079Z,14.40
2018-05-06T22:07:02.943Z,14.34
2018-05-06T22:09:32.035Z,14.28
2018-05-06T22:12:00.343Z,14.26
2018-05-06T22:14:29.683Z,14.13
2018-05-06T22:16:57.965Z,14.05
2018-05-06T22:19:27.047Z,14.03
2018-05-06T22:21:55.515Z,13.97
2018-05-06T22:24:24.598Z,13.85
2018-05-06T22:26:53.566Z,13.78
2018-05-06T22:29:21.867Z,13.73
2018-05-06T22:31:50.252Z,13.64
2018-05-06T22:34:18.612Z,13.60
2018-05-06T22:36:47.862Z,13.51
2018-05-06T22:39:16.734Z,13.35
2018-05-06T22:41:45.183Z,13.37
2018-05-06T22:44:13.319Z,13.29
2018-05-06T22:46:42.392Z,13.24
2018-05-06T22:49:10.678Z,13.27
2018-05-06T22:51:39.026Z,13.40
2018-05-06T22:54:07.880Z,13.35
2018-05-06T22:56:36.735Z,13.28
2018-05-06T22:59:05.371Z,13.27
2018-05-06T23:01:33.887Z,13.33
2018-05-06T23:04:02.164Z,13.23
2018-05-06T23:06:31.170Z,13.21
2018-05-06T23:08:59.750Z,13.15
2018-05-06T23:11:28.030Z,13.23
2018-05-06T23:13:56.311Z,13.22
2018-05-06T23:16:24.702Z,13.32
2018-05-06T23:18:53.224Z,13.22
2018-05-06T23:21:21.996Z,13.30
2018-05-06T23:23:51.311Z,13.34
2018-05-06T23:26:19.619Z,13.42
2018-05-06T23:28:48.185Z,13.32
2018-05-06T23:31:16.778Z,13.08
2018-05-06T23:33:45.058Z,13.15
2018-05-06T23:36:13.495Z,13.02
2018-05-06T23:38:43.479Z,12.88
2018-05-06T23:41:12.873Z,12.79
2018-05-06T23:43:41.162Z,12.58
2018-05-06T23:46:09.600Z,12.38
2018-05-06T23:48:38.036Z,12.25
2018-05-06T23:51:07.435Z,12.22
2018-05-06T23:53:36.939Z,12.23
2018-05-06T23:56:05.707Z,12.27
2018-05-06T23:58:35.086Z,12.15
